Pirenopolis, Brazil
Current Conditions -  °F | °C
As of 12:00 AM on Monday 20 Oct 2014 (Local Time) from SBAN Reporting Station
Few Clouds Few Clouds  
Wind Chill: 75°   Ceiling: Unl
Heat Index: 75°   Visibility: 6mi
Dew Point: 54°   Wind: 3mph
Humidity: 47%   Direction: 150°SSE
Pressure: 30.06"   Gusts: NA
Location:  15.85°S, 48.96°W
Report Text: SBAN 200300Z 15003KT 9999 FEW040 FEW045TCU 24/12 Q1018
Loading
Personal Weather Stations






























Interactive Weather Map
Tropical Storm Tracking
New forecast layout! Learn more

10-Day Weather Forecast

Advertisements
Track Severe Weather on mobile